Twr-7 — TWR-7 — position and weather

sailwx.info

Track history (hours):
 
Tides and Currents Weather Stations Pressure Air Temp Water Temp Dewpoint Dewpoint Depression Visibility Wind Speed Wind Dir Waves Ship Positions

Twr-7

Last reported at 2016-Jul-24 16:21 UTC. Time now 2016-Jul-24 22:26 UTC.
Position N 47°42' W 122°37'.

; draft 1.5 m.

Type: Military. MMSI: 369970258.

Date/timePositionNaut miles runAvg speedWind from/ knotsBaromVisibWave heightAir tempDewpointWater temp
2016-Jul-24 16:21N 47°42' W 122°37'1 0.0
2016-Jul-22 23:34N 47°41' W 122°36'1312.9
2016-Jul-22 22:34N 47°53' W 122°30'3316.0
2016-Jul-22 20:31N 48°24' W 122°45'1818.6
2016-Jul-22 19:33N 48°42' W 122°49'1615.8
2016-Jul-22 18:33N 48°43' W 123°13'2517.0
2016-Jul-22 17:03N 49°01' W 123°39'1017.7
2016-Jul-22 16:30N 49°08' W 123°49'1110.9
2016-Jul-22 15:31N 49°15' W 124°02'11 1.0
2016-Jul-22 04:33N 49°08' W 123°49'2718.4
2016-Jul-22 03:04N 48°48' W 123°20'1018.9
2016-Jul-22 02:33N 48°40' W 123°14'5517.6
2016-Jul-21 23:27N 47°51' W 122°37'4 0.1
2016-Jul-19 21:27N 47°48' W 122°42'1010.8
2016-Jul-19 20:32N 47°58' W 122°38'3114.0
2016-Jul-19 18:22N 48°24' W 123°03'1619.5
2016-Jul-19 17:33N 48°38' W 123°14'1515.1
2016-Jul-19 16:33N 48°52' W 123°18'1717.1
2016-Jul-19 15:33N 49°06' W 123°34'1716.8
2016-Jul-19 14:33N 49°15' W 123°56'8 0.2
2016-Jul-18 00:32N 49°16' W 124°08'1 0.7
2016-Jul-17 23:29N 49°16' W 124°09'3 3.0
2016-Jul-17 22:31N 49°18' W 124°05'2 2.5
2016-Jul-17 21:32N 49°17' W 124°02'0 0.1
2016-Jul-17 20:29N 49°17' W 124°02'1 1.1
2016-Jul-17 19:27N 49°17' W 124°00'3 3.4
2016-Jul-17 18:33N 49°18' W 123°56'4 3.6
2016-Jul-17 17:33N 49°17' W 124°01'0 0.4
2016-Jul-17 16:30N 49°17' W 124°01'1 0.9
2016-Jul-17 15:33N 49°17' W 124°00'6 5.9
2016-Jul-17 14:33N 49°16' W 124°09'2 0.1
2016-Jul-16 22:26N 49°16' W 124°07'7 7.9
2016-Jul-16 21:33N 49°20' W 123°58'2 2.3
2016-Jul-16 20:33N 49°20' W 123°54'0 0.4
2016-Jul-16 19:33N 49°21' W 123°54'0 0.4
2016-Jul-16 18:32N 49°21' W 123°54'5 4.7
2016-Jul-16 17:33N 49°18' W 123°48'2 1.5
2016-Jul-16 16:33N 49°19' W 123°50'6 6.5
2016-Jul-16 15:33N 49°21' W 123°60'8 7.9
2016-Jul-16 14:33N 49°16' W 124°08'1 0.6
2016-Jul-16 13:33N 49°16' W 124°09'2 0.1
2016-Jul-16 01:30N 49°16' W 124°07'9 9.5
2016-Jul-16 00:33N 49°18' W 123°53'6 6.2
2016-Jul-15 23:33N 49°18' W 124°03'2 2.1
2016-Jul-15 22:33N 49°17' W 123°60'5 5.1
2016-Jul-15 21:33N 49°20' W 123°54'1 1.1
2016-Jul-15 20:33N 49°20' W 123°52'0 0.5
2016-Jul-15 19:33N 49°20' W 123°53'1 0.5
2016-Jul-15 18:33N 49°19' W 123°52'2 2.1
2016-Jul-15 17:33N 49°20' W 123°55'1 1.3
2016-Jul-15 16:33N 49°20' W 123°53'2 1.7
2016-Jul-15 15:33N 49°21' W 123°56'2 1.8
2016-Jul-15 14:33N 49°20' W 123°58'8 8.1
2016-Jul-15 13:33N 49°16' W 124°09'0 0.0
2016-Jul-15 00:16N 49°16' W 124°09'0 0.0
2016-Jul-14 23:33N 49°16' W 124°09'0 0.3
2016-Jul-14 22:32N 49°16' W 124°09'2 2.0
2016-Jul-14 21:33N 49°16' W 124°06'6 5.8
2016-Jul-14 20:33N 49°20' W 123°59'4 4.3
2016-Jul-14 19:33N 49°20' W 123°52'6 5.6
2016-Jul-14 18:33N 49°21' W 124°01'3 3.4
2016-Jul-14 17:33N 49°18' W 124°03'4 4.4
2016-Jul-14 16:33N 49°16' W 123°56'  
Track history (hours):
 
Tides and Currents Weather Stations Pressure Air Temp Water Temp Dewpoint Dewpoint Depression Visibility Wind Speed Wind Dir Waves Ship Positions

Twr-7

Last reported at 2016-Jul-24 16:21 UTC. Time now 2016-Jul-24 22:26 UTC.
Position N 47°42' W 122°37'.

; draft 1.5 m.

Type: Military. MMSI: 369970258.

Date/timePositionNaut miles runAvg speedWind from/ knotsBaromVisibWave heightAir tempDewpointWater temp
2016-Jul-24 16:21N 47°42' W 122°37'1 0.0
2016-Jul-22 23:34N 47°41' W 122°36'1312.9
2016-Jul-22 22:34N 47°53' W 122°30'3316.0
2016-Jul-22 20:31N 48°24' W 122°45'1818.6
2016-Jul-22 19:33N 48°42' W 122°49'1615.8
2016-Jul-22 18:33N 48°43' W 123°13'2517.0
2016-Jul-22 17:03N 49°01' W 123°39'1017.7
2016-Jul-22 16:30N 49°08' W 123°49'1110.9
2016-Jul-22 15:31N 49°15' W 124°02'11 1.0
2016-Jul-22 04:33N 49°08' W 123°49'2718.4
2016-Jul-22 03:04N 48°48' W 123°20'1018.9
2016-Jul-22 02:33N 48°40' W 123°14'5517.6
2016-Jul-21 23:27N 47°51' W 122°37'4 0.1
2016-Jul-19 21:27N 47°48' W 122°42'1010.8
2016-Jul-19 20:32N 47°58' W 122°38'3114.0
2016-Jul-19 18:22N 48°24' W 123°03'1619.5
2016-Jul-19 17:33N 48°38' W 123°14'1515.1
2016-Jul-19 16:33N 48°52' W 123°18'1717.1
2016-Jul-19 15:33N 49°06' W 123°34'1716.8
2016-Jul-19 14:33N 49°15' W 123°56'8 0.2
2016-Jul-18 00:32N 49°16' W 124°08'1 0.7
2016-Jul-17 23:29N 49°16' W 124°09'3 3.0
2016-Jul-17 22:31N 49°18' W 124°05'2 2.5
2016-Jul-17 21:32N 49°17' W 124°02'0 0.1
2016-Jul-17 20:29N 49°17' W 124°02'1 1.1
2016-Jul-17 19:27N 49°17' W 124°00'3 3.4
2016-Jul-17 18:33N 49°18' W 123°56'4 3.6
2016-Jul-17 17:33N 49°17' W 124°01'0 0.4
2016-Jul-17 16:30N 49°17' W 124°01'1 0.9
2016-Jul-17 15:33N 49°17' W 124°00'6 5.9
2016-Jul-17 14:33N 49°16' W 124°09'2 0.1
2016-Jul-16 22:26N 49°16' W 124°07'7 7.9
2016-Jul-16 21:33N 49°20' W 123°58'2 2.3
2016-Jul-16 20:33N 49°20' W 123°54'0 0.4
2016-Jul-16 19:33N 49°21' W 123°54'0 0.4
2016-Jul-16 18:32N 49°21' W 123°54'5 4.7
2016-Jul-16 17:33N 49°18' W 123°48'2 1.5
2016-Jul-16 16:33N 49°19' W 123°50'6 6.5
2016-Jul-16 15:33N 49°21' W 123°60'8 7.9
2016-Jul-16 14:33N 49°16' W 124°08'1 0.6
2016-Jul-16 13:33N 49°16' W 124°09'2 0.1
2016-Jul-16 01:30N 49°16' W 124°07'9 9.5
2016-Jul-16 00:33N 49°18' W 123°53'6 6.2
2016-Jul-15 23:33N 49°18' W 124°03'2 2.1
2016-Jul-15 22:33N 49°17' W 123°60'5 5.1
2016-Jul-15 21:33N 49°20' W 123°54'1 1.1
2016-Jul-15 20:33N 49°20' W 123°52'0 0.5
2016-Jul-15 19:33N 49°20' W 123°53'1 0.5
2016-Jul-15 18:33N 49°19' W 123°52'2 2.1
2016-Jul-15 17:33N 49°20' W 123°55'1 1.3
2016-Jul-15 16:33N 49°20' W 123°53'2 1.7
2016-Jul-15 15:33N 49°21' W 123°56'2 1.8
2016-Jul-15 14:33N 49°20' W 123°58'8 8.1
2016-Jul-15 13:33N 49°16' W 124°09'0 0.0
2016-Jul-15 00:16N 49°16' W 124°09'0 0.0
2016-Jul-14 23:33N 49°16' W 124°09'0 0.3
2016-Jul-14 22:32N 49°16' W 124°09'2 2.0
2016-Jul-14 21:33N 49°16' W 124°06'6 5.8
2016-Jul-14 20:33N 49°20' W 123°59'4 4.3
2016-Jul-14 19:33N 49°20' W 123°52'6 5.6
2016-Jul-14 18:33N 49°21' W 124°01'3 3.4
2016-Jul-14 17:33N 49°18' W 124°03'4 4.4
2016-Jul-14 16:33N 49°16' W 123°56'  

Dump ship's entire track history